createdAt,value
2024-02-29T00:00:48.521Z,13.60
2024-02-29T00:03:15.164Z,13.60
2024-02-29T00:05:41.968Z,13.70
2024-02-29T00:08:08.635Z,13.80
2024-02-29T00:10:35.256Z,13.80
2024-02-29T00:13:01.999Z,13.80
2024-02-29T00:15:28.724Z,13.80
2024-02-29T00:17:55.530Z,13.80
2024-02-29T00:20:22.261Z,13.80
2024-02-29T00:22:48.939Z,13.70
2024-02-29T00:25:15.597Z,13.70
2024-02-29T00:27:42.374Z,13.70
2024-02-29T00:30:09.281Z,13.50
2024-02-29T00:32:35.942Z,13.30
2024-02-29T00:35:02.655Z,13.40
2024-02-29T00:37:29.310Z,13.50
2024-02-29T00:39:59.233Z,13.50
2024-02-29T00:42:25.951Z,13.60
2024-02-29T00:44:52.560Z,13.50
2024-02-29T00:47:19.206Z,13.50
2024-02-29T00:49:45.885Z,13.60
2024-02-29T00:52:12.694Z,13.60
2024-02-29T00:54:39.443Z,13.50
2024-02-29T00:57:06.236Z,13.00
2024-02-29T00:59:32.907Z,13.10
2024-02-29T01:01:59.698Z,13.30
2024-02-29T01:04:26.504Z,13.40
2024-02-29T01:06:53.195Z,13.40
2024-02-29T01:09:19.881Z,13.40
2024-02-29T01:11:46.623Z,13.30
2024-02-29T01:14:13.320Z,13.30
2024-02-29T01:16:39.949Z,13.30
2024-02-29T01:19:06.787Z,13.30
2024-02-29T01:21:33.586Z,13.30
2024-02-29T01:24:00.226Z,13.40
2024-02-29T01:26:26.972Z,13.30
2024-02-29T01:28:53.653Z,13.40
2024-02-29T01:31:20.374Z,13.40
2024-02-29T01:33:47.155Z,13.20
2024-02-29T01:36:13.797Z,12.90
2024-02-29T01:38:40.448Z,13.00
2024-02-29T01:41:07.203Z,13.10
2024-02-29T01:43:33.882Z,13.20
2024-02-29T01:46:00.555Z,13.30
2024-02-29T01:48:27.255Z,13.30
2024-02-29T01:50:53.859Z,13.30
2024-02-29T01:53:20.534Z,13.30
2024-02-29T01:55:47.202Z,13.20
2024-02-29T01:58:14.173Z,13.20
2024-02-29T02:00:41.037Z,13.30
2024-02-29T02:03:07.766Z,13.30
2024-02-29T02:05:34.392Z,13.30
2024-02-29T02:08:01.034Z,13.30
2024-02-29T02:10:27.766Z,13.30
2024-02-29T02:12:54.375Z,13.20
2024-02-29T02:15:21.013Z,12.80
2024-02-29T02:17:47.789Z,12.70
2024-02-29T02:20:14.409Z,12.80
2024-02-29T02:22:41.069Z,12.90
2024-02-29T02:25:07.858Z,13.00
2024-02-29T02:27:34.571Z,13.10
2024-02-29T02:30:01.297Z,13.10
2024-02-29T02:32:27.985Z,12.90
2024-02-29T02:34:54.663Z,12.90
2024-02-29T02:37:21.290Z,13.00
2024-02-29T02:39:48.039Z,12.70
2024-02-29T02:42:14.714Z,12.50
2024-02-29T02:44:41.426Z,12.70
2024-02-29T02:47:08.098Z,12.80
2024-02-29T02:49:34.753Z,12.90
2024-02-29T02:52:01.422Z,12.80
2024-02-29T02:54:28.130Z,12.50
2024-02-29T02:56:54.793Z,12.50
2024-02-29T02:59:21.484Z,12.50
2024-02-29T03:01:48.227Z,12.60
2024-02-29T03:04:15.016Z,12.80
2024-02-29T03:06:41.735Z,12.60
2024-02-29T03:09:08.472Z,12.60
2024-02-29T03:11:35.188Z,12.60
2024-02-29T03:14:01.948Z,12.50
2024-02-29T03:16:29.032Z,12.30
2024-02-29T03:18:55.905Z,12.40
2024-02-29T03:21:22.593Z,12.40
2024-02-29T03:23:49.314Z,12.40
2024-02-29T03:26:15.984Z,12.50
2024-02-29T03:28:42.677Z,12.20
2024-02-29T03:31:09.456Z,12.00
2024-02-29T03:33:36.204Z,12.00
2024-02-29T03:36:02.915Z,11.90
2024-02-29T03:38:29.594Z,11.80
2024-02-29T03:40:56.262Z,11.90
2024-02-29T03:43:22.895Z,12.00
2024-02-29T03:45:49.640Z,12.00
2024-02-29T03:48:16.291Z,12.10
2024-02-29T03:50:42.923Z,11.80
2024-02-29T03:53:09.608Z,11.30
2024-02-29T03:55:36.211Z,11.50
2024-02-29T03:58:02.924Z,11.50
2024-02-29T04:00:29.713Z,11.20
2024-02-29T04:02:56.502Z,11.00
2024-02-29T04:05:23.178Z,11.00
2024-02-29T04:07:49.938Z,11.10
2024-02-29T04:10:16.714Z,11.30
2024-02-29T04:12:43.397Z,11.40
2024-02-29T04:15:10.242Z,11.70
2024-02-29T04:17:36.929Z,11.90
2024-02-29T04:20:03.619Z,11.90
2024-02-29T04:22:30.325Z,11.90
2024-02-29T04:24:57.004Z,12.00
2024-02-29T04:27:23.732Z,12.10
2024-02-29T04:29:50.457Z,11.80
2024-02-29T04:32:17.078Z,11.60
2024-02-29T04:34:43.755Z,11.60
2024-02-29T04:37:10.537Z,11.60
2024-02-29T04:39:37.305Z,11.80
2024-02-29T04:42:03.969Z,11.90
2024-02-29T04:44:30.710Z,12.10
2024-02-29T04:46:57.382Z,12.20
2024-02-29T04:49:24.048Z,12.00
2024-02-29T04:51:50.832Z,12.00
2024-02-29T04:54:17.474Z,12.20
2024-02-29T04:56:44.146Z,12.10
2024-02-29T04:59:10.847Z,12.20
2024-02-29T05:01:37.587Z,12.20
2024-02-29T05:04:04.294Z,12.20
2024-02-29T05:06:30.983Z,12.20
2024-02-29T05:08:57.633Z,11.90
2024-02-29T05:11:24.274Z,11.40
2024-02-29T05:13:50.998Z,11.30
2024-02-29T05:16:17.736Z,11.40
2024-02-29T05:18:44.423Z,11.50
2024-02-29T05:21:11.159Z,11.80
2024-02-29T05:23:37.829Z,12.00
2024-02-29T05:26:04.502Z,12.20
2024-02-29T05:28:31.198Z,12.20
2024-02-29T05:30:57.848Z,11.70
2024-02-29T05:33:24.557Z,11.60
2024-02-29T05:35:51.286Z,11.80
2024-02-29T05:38:17.924Z,11.60
2024-02-29T05:40:44.595Z,11.90
2024-02-29T05:43:11.427Z,12.00
2024-02-29T05:45:38.139Z,12.10
2024-02-29T05:48:04.864Z,11.90
2024-02-29T05:50:33.981Z,11.80
2024-02-29T05:53:01.014Z,11.90
2024-02-29T05:55:27.689Z,12.10
2024-02-29T05:57:54.448Z,12.20
2024-02-29T06:00:21.128Z,12.30
2024-02-29T06:02:49.909Z,12.30
2024-02-29T06:05:17.435Z,12.20
2024-02-29T06:07:44.031Z,11.90
2024-02-29T06:10:10.703Z,11.80
2024-02-29T06:12:37.506Z,12.00
2024-02-29T06:15:05.742Z,12.10
2024-02-29T06:17:33.669Z,11.90
2024-02-29T06:20:00.466Z,12.00
2024-02-29T06:22:27.134Z,12.20
2024-02-29T06:24:53.847Z,12.20
2024-02-29T06:27:20.622Z,12.30
2024-02-29T06:29:47.237Z,12.40
2024-02-29T06:32:13.866Z,12.40
2024-02-29T06:34:40.628Z,12.30
2024-02-29T06:37:07.296Z,12.40
2024-02-29T06:39:34.100Z,12.30
2024-02-29T06:42:00.799Z,12.40
2024-02-29T06:44:27.447Z,12.40
2024-02-29T06:46:54.114Z,12.40
2024-02-29T06:49:20.891Z,12.50
2024-02-29T06:51:47.596Z,12.50
2024-02-29T06:54:14.283Z,12.50
2024-02-29T06:56:40.989Z,12.40
2024-02-29T06:59:07.621Z,12.40
2024-02-29T07:01:34.434Z,12.30
2024-02-29T07:04:01.291Z,12.20
2024-02-29T07:06:27.969Z,12.20
2024-02-29T07:08:54.624Z,12.20
2024-02-29T07:11:21.429Z,12.20
2024-02-29T07:13:48.074Z,12.20
2024-02-29T07:16:14.866Z,12.20
2024-02-29T07:18:41.708Z,12.30
2024-02-29T07:21:08.345Z,12.00
2024-02-29T07:23:35.044Z,12.20
2024-02-29T07:26:01.822Z,12.30
2024-02-29T07:28:28.473Z,12.10
2024-02-29T07:30:55.220Z,12.00
2024-02-29T07:33:22.028Z,12.10
2024-02-29T07:35:48.653Z,12.10
2024-02-29T07:38:15.306Z,12.20
2024-02-29T07:40:42.001Z,12.40
2024-02-29T07:43:10.294Z,12.60
2024-02-29T07:45:37.423Z,12.60
2024-02-29T07:48:04.298Z,12.50
2024-02-29T07:50:31.082Z,12.40
2024-02-29T07:52:57.703Z,12.30
2024-02-29T07:55:24.507Z,12.30
2024-02-29T07:57:51.226Z,12.20
2024-02-29T08:00:17.905Z,12.30
2024-02-29T08:02:44.805Z,12.30
2024-02-29T08:05:11.510Z,12.20
2024-02-29T08:07:38.171Z,12.10
2024-02-29T08:10:04.949Z,12.30
2024-02-29T08:12:31.615Z,12.30
2024-02-29T08:14:58.237Z,12.30
2024-02-29T08:17:24.996Z,12.40
2024-02-29T08:19:51.614Z,12.20
2024-02-29T08:22:18.309Z,12.10
2024-02-29T08:24:45.041Z,12.00
2024-02-29T08:27:11.726Z,12.00
2024-02-29T08:29:38.388Z,12.00
2024-02-29T08:32:05.151Z,12.10
2024-02-29T08:34:31.779Z,12.10
2024-02-29T08:36:58.465Z,11.90
2024-02-29T08:39:25.173Z,11.90
2024-02-29T08:41:51.789Z,12.20
2024-02-29T08:44:18.403Z,12.50
2024-02-29T08:46:45.155Z,12.60
2024-02-29T08:49:11.874Z,12.30
2024-02-29T08:51:38.558Z,12.20
2024-02-29T08:54:06.376Z,12.20
2024-02-29T08:56:34.311Z,12.50
2024-02-29T08:59:00.983Z,12.30
2024-02-29T09:01:27.793Z,12.30
2024-02-29T09:03:54.549Z,12.30
2024-02-29T09:06:21.218Z,12.00
2024-02-29T09:08:47.980Z,12.00
2024-02-29T09:11:14.640Z,12.40
2024-02-29T09:13:41.400Z,12.20
2024-02-29T09:16:08.334Z,12.00
2024-02-29T09:18:35.145Z,12.50
2024-02-29T09:21:01.850Z,12.90
2024-02-29T09:23:28.610Z,12.70
2024-02-29T09:25:55.426Z,12.70
2024-02-29T09:28:22.290Z,12.80
2024-02-29T09:30:49.194Z,12.50
2024-02-29T09:33:15.931Z,12.80
2024-02-29T09:35:42.597Z,13.10
2024-02-29T09:38:09.324Z,13.10
2024-02-29T09:40:45.595Z,13.30
2024-02-29T09:43:16.387Z,13.50
2024-02-29T09:45:43.126Z,13.60
2024-02-29T09:48:09.785Z,13.60
2024-02-29T09:50:36.489Z,13.60
2024-02-29T09:53:03.140Z,13.70
2024-02-29T09:55:29.818Z,13.70
2024-02-29T09:57:56.601Z,13.60
2024-02-29T10:00:23.285Z,13.90
2024-02-29T10:02:51.641Z,13.90
2024-02-29T10:05:19.738Z,14.20
2024-02-29T10:07:46.431Z,13.90
2024-02-29T10:10:13.129Z,14.30
2024-02-29T10:12:39.938Z,14.60
2024-02-29T10:15:06.617Z,14.60
2024-02-29T10:17:33.322Z,14.90
2024-02-29T10:20:00.109Z,15.10
2024-02-29T10:22:26.817Z,15.40
2024-02-29T10:24:53.507Z,15.60
2024-02-29T10:27:20.261Z,15.60
2024-02-29T10:29:46.912Z,15.30
2024-02-29T10:32:13.534Z,15.40
2024-02-29T10:34:41.042Z,15.20
2024-02-29T10:37:07.847Z,15.50
2024-02-29T10:39:34.525Z,15.10
2024-02-29T10:42:01.308Z,14.30
2024-02-29T10:44:28.055Z,14.60
2024-02-29T10:46:54.694Z,14.70
2024-02-29T10:49:21.548Z,14.50
2024-02-29T10:51:48.289Z,14.80
2024-02-29T10:54:14.974Z,14.60
2024-02-29T10:56:43.252Z,14.30
2024-02-29T10:59:09.969Z,14.60
2024-02-29T11:01:36.782Z,15.00
2024-02-29T11:04:03.620Z,15.40
2024-02-29T11:06:30.329Z,15.20
2024-02-29T11:08:56.962Z,15.20
2024-02-29T11:11:23.735Z,15.40
2024-02-29T11:13:50.440Z,15.70
2024-02-29T11:16:17.128Z,15.90
2024-02-29T11:18:43.865Z,16.00
2024-02-29T11:21:10.510Z,16.10
2024-02-29T11:23:37.121Z,16.10
2024-02-29T11:26:03.957Z,16.00
2024-02-29T11:28:30.697Z,16.40
2024-02-29T11:31:00.682Z,16.10
2024-02-29T11:33:27.565Z,16.00
2024-02-29T11:35:54.264Z,16.00
2024-02-29T11:38:28.720Z,15.70
2024-02-29T11:40:59.638Z,15.90
2024-02-29T11:43:26.497Z,15.80
2024-02-29T11:45:53.248Z,16.10
2024-02-29T11:48:19.983Z,15.90
2024-02-29T11:50:46.707Z,15.90
2024-02-29T11:53:13.559Z,15.30
2024-02-29T11:55:40.348Z,15.90
2024-02-29T11:58:07.053Z,15.90
2024-02-29T12:00:33.738Z,16.10
2024-02-29T12:03:00.534Z,15.90
2024-02-29T12:05:27.204Z,16.20
2024-02-29T12:07:53.855Z,16.20
2024-02-29T12:10:26.710Z,15.80
2024-02-29T12:12:53.405Z,15.70
2024-02-29T12:15:20.141Z,15.50
2024-02-29T12:17:46.951Z,15.90
2024-02-29T12:20:13.607Z,16.50
2024-02-29T12:22:42.330Z,16.50
2024-02-29T12:25:09.095Z,17.10
2024-02-29T12:27:35.745Z,17.40
2024-02-29T12:30:02.438Z,17.10
2024-02-29T12:32:29.248Z,17.10
2024-02-29T12:34:55.922Z,17.10
2024-02-29T12:37:22.694Z,16.40
2024-02-29T12:39:49.502Z,16.10
2024-02-29T12:42:16.185Z,16.30
2024-02-29T12:44:42.865Z,16.70
2024-02-29T12:47:09.580Z,17.00
2024-02-29T12:49:36.214Z,17.40
2024-02-29T12:52:02.879Z,17.10
2024-02-29T12:54:29.616Z,17.00
2024-02-29T12:56:56.241Z,16.90
2024-02-29T12:59:22.897Z,17.40
2024-02-29T13:01:49.709Z,17.50
2024-02-29T13:04:16.525Z,17.20
2024-02-29T13:06:43.254Z,17.10
2024-02-29T13:09:10.090Z,17.00
2024-02-29T13:11:36.814Z,17.00
2024-02-29T13:14:03.512Z,17.30
2024-02-29T13:16:30.313Z,17.40
2024-02-29T13:18:57.043Z,17.60
2024-02-29T13:21:23.758Z,17.50
2024-02-29T13:23:50.490Z,17.30
2024-02-29T13:26:17.095Z,16.80
2024-02-29T13:28:43.782Z,16.60
2024-02-29T13:31:10.604Z,16.50
2024-02-29T13:33:37.260Z,16.80
2024-02-29T13:36:03.918Z,16.80
2024-02-29T13:38:30.690Z,16.70
2024-02-29T13:40:57.313Z,16.10
2024-02-29T13:43:24.219Z,16.30
2024-02-29T13:45:51.025Z,16.30
2024-02-29T13:48:17.774Z,16.50
2024-02-29T13:50:44.455Z,16.90
2024-02-29T13:53:11.178Z,16.60
2024-02-29T13:55:37.810Z,16.80
2024-02-29T13:58:04.595Z,17.10
2024-02-29T14:00:31.359Z,16.70
2024-02-29T14:02:58.074Z,16.60
2024-02-29T14:05:24.773Z,16.80
2024-02-29T14:07:51.665Z,16.80
2024-02-29T14:10:18.451Z,16.20
2024-02-29T14:12:45.176Z,16.00
2024-02-29T14:15:11.939Z,15.80
2024-02-29T14:17:38.576Z,15.70
2024-02-29T14:20:05.273Z,15.60
2024-02-29T14:22:32.000Z,15.70
2024-02-29T14:24:58.720Z,15.70
2024-02-29T14:27:25.415Z,15.60
2024-02-29T14:29:52.099Z,15.90
2024-02-29T14:32:18.720Z,16.10
2024-02-29T14:34:45.372Z,16.10
2024-02-29T14:37:12.143Z,16.00
2024-02-29T14:39:38.895Z,15.90
2024-02-29T14:42:05.601Z,16.10
2024-02-29T14:44:32.333Z,16.10
2024-02-29T14:46:58.959Z,16.10
2024-02-29T14:49:25.735Z,16.10
2024-02-29T14:51:52.600Z,15.90
2024-02-29T14:54:19.262Z,15.80
2024-02-29T14:56:46.038Z,15.50
2024-02-29T14:59:12.742Z,15.40
2024-02-29T15:01:39.514Z,15.40
2024-02-29T15:04:06.349Z,15.40
2024-02-29T15:06:33.229Z,15.40
2024-02-29T15:08:59.944Z,15.50
2024-02-29T15:11:27.708Z,15.30
2024-02-29T15:13:54.682Z,15.00
2024-02-29T15:16:21.507Z,15.30
2024-02-29T15:18:48.310Z,15.50
2024-02-29T15:21:15.011Z,15.40
2024-02-29T15:23:41.683Z,15.60
2024-02-29T15:26:08.306Z,15.70
2024-02-29T15:28:35.137Z,15.80
2024-02-29T15:31:01.947Z,15.70
2024-02-29T15:33:28.860Z,15.70
2024-02-29T15:35:55.592Z,15.80
2024-02-29T15:38:22.249Z,15.90
2024-02-29T15:40:48.873Z,15.80
2024-02-29T15:43:15.800Z,15.60
2024-02-29T15:45:42.878Z,15.40
2024-02-29T15:48:09.808Z,15.20
2024-02-29T15:50:36.649Z,15.10
2024-02-29T15:53:03.286Z,15.30
2024-02-29T15:55:29.978Z,15.20
2024-02-29T15:57:56.808Z,15.20
2024-02-29T16:00:23.582Z,15.20
2024-02-29T16:02:50.233Z,15.30
2024-02-29T16:05:17.007Z,15.50
2024-02-29T16:07:43.685Z,15.70
2024-02-29T16:10:10.391Z,15.70
2024-02-29T16:12:37.160Z,15.50
2024-02-29T16:15:03.794Z,15.40
2024-02-29T16:17:30.494Z,15.40
2024-02-29T16:19:57.251Z,15.60
2024-02-29T16:22:24.058Z,15.50
2024-02-29T16:24:50.859Z,15.10
2024-02-29T16:27:17.590Z,15.30
2024-02-29T16:29:44.221Z,15.00
2024-02-29T16:32:10.860Z,15.00
2024-02-29T16:34:37.606Z,15.30
2024-02-29T16:37:04.301Z,15.50
2024-02-29T16:39:30.966Z,15.60
2024-02-29T16:41:57.684Z,15.60
2024-02-29T16:44:24.348Z,15.20
2024-02-29T16:46:51.043Z,15.20
2024-02-29T16:49:17.804Z,15.30
2024-02-29T16:51:44.496Z,15.30
2024-02-29T16:54:11.191Z,15.30
2024-02-29T16:56:37.869Z,15.30
2024-02-29T16:59:04.569Z,15.40
2024-02-29T17:01:31.260Z,15.30
2024-02-29T17:03:58.102Z,15.40
2024-02-29T17:06:24.708Z,15.40
2024-02-29T17:08:51.323Z,15.30
2024-02-29T17:11:18.524Z,15.40
2024-02-29T17:13:45.166Z,15.40
2024-02-29T17:16:11.990Z,15.30
2024-02-29T17:18:38.728Z,15.30
2024-02-29T17:21:05.402Z,15.30
2024-02-29T17:23:32.036Z,15.30
2024-02-29T17:25:58.774Z,15.20
2024-02-29T17:28:25.519Z,15.30
2024-02-29T17:30:52.226Z,15.30
2024-02-29T17:33:18.989Z,15.20
2024-02-29T17:35:45.727Z,15.10
2024-02-29T17:38:12.347Z,15.00
2024-02-29T17:40:39.043Z,15.00
2024-02-29T17:43:05.739Z,14.70
2024-02-29T17:45:32.493Z,14.80
2024-02-29T17:47:59.194Z,14.70
2024-02-29T17:50:26.661Z,14.70
2024-02-29T17:52:53.794Z,14.80
2024-02-29T17:55:20.569Z,14.80
2024-02-29T17:57:47.438Z,14.80
2024-02-29T18:00:14.178Z,14.90
2024-02-29T18:02:40.880Z,14.60
2024-02-29T18:05:10.002Z,14.70
2024-02-29T18:07:43.652Z,14.80
2024-02-29T18:10:17.422Z,14.70
2024-02-29T18:12:44.167Z,14.70
2024-02-29T18:15:10.839Z,14.60
2024-02-29T18:17:37.557Z,14.70
2024-02-29T18:20:04.264Z,14.70
2024-02-29T18:22:31.000Z,14.70
2024-02-29T18:24:57.819Z,14.60
2024-02-29T18:27:24.591Z,14.60
2024-02-29T18:29:51.307Z,14.10
2024-02-29T18:32:18.034Z,14.00
2024-02-29T18:34:44.665Z,13.80
2024-02-29T18:37:11.318Z,14.10
2024-02-29T18:39:38.051Z,14.30
2024-02-29T18:42:04.696Z,14.20
2024-02-29T18:44:31.316Z,14.30
2024-02-29T18:46:58.078Z,14.40
2024-02-29T18:49:24.870Z,14.40
2024-02-29T18:51:51.590Z,14.50
2024-02-29T18:54:18.365Z,14.30
2024-02-29T18:56:45.038Z,13.70
2024-02-29T18:59:11.699Z,13.70
2024-02-29T19:01:38.442Z,13.90
2024-02-29T19:04:05.156Z,14.10
2024-02-29T19:06:31.826Z,14.20
2024-02-29T19:08:58.565Z,14.10
2024-02-29T19:11:25.336Z,14.00
2024-02-29T19:13:52.016Z,13.80
2024-02-29T19:16:18.754Z,13.90
2024-02-29T19:18:45.395Z,14.10
2024-02-29T19:21:12.053Z,14.20
2024-02-29T19:23:38.789Z,14.00
2024-02-29T19:26:05.415Z,13.50
2024-02-29T19:28:32.165Z,13.30
2024-02-29T19:30:59.050Z,13.20
2024-02-29T19:33:25.712Z,13.40
2024-02-29T19:35:52.413Z,13.40
2024-02-29T19:38:19.201Z,13.50
2024-02-29T19:40:45.874Z,13.60
2024-02-29T19:43:12.678Z,13.90
2024-02-29T19:45:40.098Z,14.00
2024-02-29T19:48:07.522Z,13.30
2024-02-29T19:50:34.206Z,13.50
2024-02-29T19:53:00.957Z,13.80
2024-02-29T19:55:27.695Z,13.90
2024-02-29T19:57:54.740Z,13.70
2024-02-29T20:00:21.465Z,13.40
2024-02-29T20:02:48.161Z,13.50
2024-02-29T20:05:14.858Z,13.70
2024-02-29T20:07:41.540Z,13.90
2024-02-29T20:10:08.303Z,13.90
2024-02-29T20:12:35.021Z,13.80
2024-02-29T20:15:01.739Z,13.70
2024-02-29T20:17:28.397Z,13.70
2024-02-29T20:19:55.037Z,13.70
2024-02-29T20:22:21.827Z,13.20
2024-02-29T20:24:48.615Z,13.00
2024-02-29T20:27:15.317Z,12.90
2024-02-29T20:29:41.998Z,12.80
2024-02-29T20:32:08.667Z,12.50
2024-02-29T20:34:35.387Z,12.50
2024-02-29T20:37:02.166Z,12.70
2024-02-29T20:39:28.899Z,12.80
2024-02-29T20:41:55.516Z,12.80
2024-02-29T20:44:22.389Z,12.50
2024-02-29T20:46:49.004Z,12.60
2024-02-29T20:49:15.729Z,12.40
2024-02-29T20:51:42.496Z,12.30
2024-02-29T20:54:09.125Z,12.40
2024-02-29T20:56:35.779Z,12.40
2024-02-29T20:59:02.453Z,12.40
2024-02-29T21:01:29.340Z,12.40
2024-02-29T21:03:56.077Z,12.30
2024-02-29T21:06:22.829Z,11.90
2024-02-29T21:08:49.488Z,11.50
2024-02-29T21:11:16.191Z,11.60
2024-02-29T21:13:42.897Z,11.70
2024-02-29T21:16:09.633Z,11.50
2024-02-29T21:18:36.310Z,11.70
2024-02-29T21:21:03.051Z,11.30
2024-02-29T21:23:29.700Z,11.40
2024-02-29T21:25:56.351Z,11.50
2024-02-29T21:28:23.258Z,11.60
2024-02-29T21:30:50.068Z,11.30
2024-02-29T21:33:16.943Z,11.40
2024-02-29T21:35:43.682Z,11.40
2024-02-29T21:38:10.382Z,11.50
2024-02-29T21:40:37.033Z,11.50
2024-02-29T21:43:03.749Z,11.50
2024-02-29T21:45:30.391Z,11.00
2024-02-29T21:47:57.076Z,11.00
2024-02-29T21:50:23.796Z,11.10
2024-02-29T21:52:50.439Z,11.20
2024-02-29T21:55:17.096Z,10.80
2024-02-29T21:57:44.139Z,10.40
2024-02-29T22:00:10.820Z,10.40
2024-02-29T22:02:37.528Z,10.70
2024-02-29T22:05:04.277Z,10.90
2024-02-29T22:07:30.981Z,11.10
2024-02-29T22:09:57.710Z,11.20
2024-02-29T22:12:24.432Z,10.90
2024-02-29T22:14:51.075Z,10.90
2024-02-29T22:17:17.718Z,10.90
2024-02-29T22:19:44.428Z,11.00
2024-02-29T22:22:11.150Z,10.90
2024-02-29T22:24:37.804Z,10.90
2024-02-29T22:27:04.534Z,10.80
2024-02-29T22:29:31.193Z,11.00
2024-02-29T22:31:57.899Z,11.00
2024-02-29T22:34:24.656Z,10.20
2024-02-29T22:36:51.289Z,10.00
2024-02-29T22:39:17.973Z,9.70
2024-02-29T22:41:52.913Z,9.80
2024-02-29T22:44:24.223Z,10.00
2024-02-29T22:46:50.978Z,10.40
2024-02-29T22:49:17.698Z,10.60
2024-02-29T22:51:44.388Z,10.70
2024-02-29T22:54:11.117Z,10.90
2024-02-29T22:56:37.801Z,10.90
2024-02-29T22:59:04.471Z,10.60
2024-02-29T23:01:31.217Z,10.50
2024-02-29T23:03:57.918Z,10.50
2024-02-29T23:06:24.580Z,10.80
2024-02-29T23:08:51.317Z,10.90
2024-02-29T23:11:18.396Z,11.00
2024-02-29T23:13:45.186Z,11.10
2024-02-29T23:16:11.884Z,10.70
2024-02-29T23:18:38.535Z,10.30
2024-02-29T23:21:05.190Z,10.30
2024-02-29T23:23:31.966Z,10.30
2024-02-29T23:25:58.940Z,10.60
2024-02-29T23:28:25.638Z,10.50
2024-02-29T23:30:52.426Z,10.20
2024-02-29T23:33:19.279Z,10.20
2024-02-29T23:35:45.976Z,10.50
2024-02-29T23:38:12.673Z,10.60
2024-02-29T23:40:39.380Z,10.70
2024-02-29T23:43:06.052Z,10.80
2024-02-29T23:45:32.798Z,10.70
2024-02-29T23:47:59.457Z,10.70
2024-02-29T23:50:26.121Z,10.70
2024-02-29T23:52:53.032Z,10.60
2024-02-29T23:55:19.791Z,10.80
2024-02-29T23:57:46.559Z,10.30
